sensor_id;sensor_type;location;lat;lon;timestamp;pressure;altitude;pressure_sealevel;temperature;humidity
61682;BME280;47577;43.610;25.010;2023-06-24T00:01:16;100230.44;;;22.46;79.55
61682;BME280;47577;43.610;25.010;2023-06-24T00:03:42;100227.72;;;22.46;79.64
61682;BME280;47577;43.610;25.010;2023-06-24T00:06:12;100230.44;;;22.46;79.96
61682;BME280;47577;43.610;25.010;2023-06-24T00:08:47;100229.84;;;22.43;79.22
61682;BME280;47577;43.610;25.010;2023-06-24T00:11:13;100227.09;;;22.33;79.82
61682;BME280;47577;43.610;25.010;2023-06-24T00:13:40;100234.69;;;22.39;80.79
61682;BME280;47577;43.610;25.010;2023-06-24T00:16:06;100225.84;;;22.37;79.99
61682;BME280;47577;43.610;25.010;2023-06-24T00:18:35;100232.59;;;22.10;81.81
61682;BME280;47577;43.610;25.010;2023-06-24T00:21:02;100231.78;;;22.31;80.35
61682;BME280;47577;43.610;25.010;2023-06-24T00:23:29;100232.94;;;22.38;80.50
61682;BME280;47577;43.610;25.010;2023-06-24T00:25:56;100223.78;;;22.30;80.62
61682;BME280;47577;43.610;25.010;2023-06-24T00:28:22;100225.22;;;21.80;83.77
61682;BME280;47577;43.610;25.010;2023-06-24T00:30:48;100223.63;;;22.10;82.13
61682;BME280;47577;43.610;25.010;2023-06-24T00:33:15;100226.44;;;22.08;81.94
61682;BME280;47577;43.610;25.010;2023-06-24T00:35:43;100213.50;;;22.12;81.51
61682;BME280;47577;43.610;25.010;2023-06-24T00:38:09;100213.88;;;22.07;81.78
61682;BME280;47577;43.610;25.010;2023-06-24T00:40:34;100210.88;;;22.22;81.69
61682;BME280;47577;43.610;25.010;2023-06-24T00:43:00;100206.91;;;22.26;81.05
61682;BME280;47577;43.610;25.010;2023-06-24T00:45:28;100210.84;;;22.33;81.43
61682;BME280;47577;43.610;25.010;2023-06-24T00:47:55;100213.22;;;22.48;79.85
61682;BME280;47577;43.610;25.010;2023-06-24T00:50:22;100207.34;;;22.42;80.21
61682;BME280;47577;43.610;25.010;2023-06-24T00:52:47;100221.56;;;22.23;81.55
61682;BME280;47577;43.610;25.010;2023-06-24T00:55:15;100225.00;;;22.25;81.32
61682;BME280;47577;43.610;25.010;2023-06-24T00:57:46;100218.50;;;22.49;80.84
61682;BME280;47577;43.610;25.010;2023-06-24T01:00:20;100217.31;;;22.63;79.72
61682;BME280;47577;43.610;25.010;2023-06-24T01:02:48;100213.75;;;22.72;79.53
61682;BME280;47577;43.610;25.010;2023-06-24T01:05:14;100209.53;;;22.79;78.13
61682;BME280;47577;43.610;25.010;2023-06-24T01:07:41;100210.69;;;22.87;77.98
61682;BME280;47577;43.610;25.010;2023-06-24T01:10:07;100210.88;;;22.95;75.77
61682;BME280;47577;43.610;25.010;2023-06-24T01:12:35;100207.16;;;23.17;75.04
61682;BME280;47577;43.610;25.010;2023-06-24T01:15:02;100211.88;;;23.25;73.50
61682;BME280;47577;43.610;25.010;2023-06-24T01:17:35;100207.50;;;23.53;72.87
61682;BME280;47577;43.610;25.010;2023-06-24T01:20:10;100207.66;;;23.61;73.21
61682;BME280;47577;43.610;25.010;2023-06-24T01:22:43;100203.81;;;23.64;71.21
61682;BME280;47577;43.610;25.010;2023-06-24T01:28:20;100197.25;;;23.76;72.44
61682;BME280;47577;43.610;25.010;2023-06-24T01:31:00;100189.09;;;23.76;72.13
61682;BME280;47577;43.610;25.010;2023-06-24T01:33:38;100200.50;;;23.41;71.73
61682;BME280;47577;43.610;25.010;2023-06-24T01:36:11;100195.66;;;23.54;71.05
61682;BME280;47577;43.610;25.010;2023-06-24T01:38:49;100192.69;;;23.57;71.79
61682;BME280;47577;43.610;25.010;2023-06-24T01:41:22;100191.94;;;23.65;70.65
61682;BME280;47577;43.610;25.010;2023-06-24T01:43:52;100195.81;;;23.72;70.08
61682;BME280;47577;43.610;25.010;2023-06-24T01:46:21;100201.13;;;23.73;70.82
61682;BME280;47577;43.610;25.010;2023-06-24T01:48:48;100197.09;;;23.58;70.34
61682;BME280;47577;43.610;25.010;2023-06-24T01:51:20;100198.66;;;23.41;71.04
61682;BME280;47577;43.610;25.010;2023-06-24T01:54:01;100196.78;;;23.51;71.00
61682;BME280;47577;43.610;25.010;2023-06-24T01:56:28;100205.38;;;23.66;70.60
61682;BME280;47577;43.610;25.010;2023-06-24T01:58:56;100200.09;;;23.65;70.88
61682;BME280;47577;43.610;25.010;2023-06-24T02:01:23;100212.66;;;23.56;69.57
61682;BME280;47577;43.610;25.010;2023-06-24T02:03:49;100207.81;;;23.60;71.57
61682;BME280;47577;43.610;25.010;2023-06-24T02:06:18;100209.66;;;23.59;72.26
61682;BME280;47577;43.610;25.010;2023-06-24T02:08:45;100206.22;;;23.47;73.34
61682;BME280;47577;43.610;25.010;2023-06-24T02:11:16;100217.09;;;23.47;72.93
61682;BME280;47577;43.610;25.010;2023-06-24T02:13:43;100212.34;;;23.40;73.84
61682;BME280;47577;43.610;25.010;2023-06-24T02:16:10;100225.19;;;23.38;72.85
61682;BME280;47577;43.610;25.010;2023-06-24T02:18:38;100231.31;;;23.30;73.92
61682;BME280;47577;43.610;25.010;2023-06-24T02:21:09;100229.41;;;23.21;73.82
61682;BME280;47577;43.610;25.010;2023-06-24T02:23:37;100232.53;;;23.16;73.59
61682;BME280;47577;43.610;25.010;2023-06-24T02:26:04;100235.81;;;23.10;74.24
61682;BME280;47577;43.610;25.010;2023-06-24T02:28:32;100237.72;;;22.98;74.05
61682;BME280;47577;43.610;25.010;2023-06-24T02:30:58;100242.47;;;23.06;74.96
61682;BME280;47577;43.610;25.010;2023-06-24T02:33:25;100250.41;;;23.18;74.50
61682;BME280;47577;43.610;25.010;2023-06-24T02:35:52;100260.28;;;23.29;74.16
61682;BME280;47577;43.610;25.010;2023-06-24T02:38:18;100253.25;;;23.17;74.55
61682;BME280;47577;43.610;25.010;2023-06-24T02:40:47;100267.06;;;23.14;75.26
61682;BME280;47577;43.610;25.010;2023-06-24T02:43:14;100278.38;;;22.98;74.75
61682;BME280;47577;43.610;25.010;2023-06-24T02:45:41;100276.94;;;22.94;75.96
61682;BME280;47577;43.610;25.010;2023-06-24T02:48:09;100271.91;;;22.89;75.74
61682;BME280;47577;43.610;25.010;2023-06-24T02:50:37;100264.84;;;22.77;76.76
61682;BME280;47577;43.610;25.010;2023-06-24T02:53:04;100266.66;;;22.67;76.71
61682;BME280;47577;43.610;25.010;2023-06-24T02:55:30;100284.56;;;22.58;76.94
61682;BME280;47577;43.610;25.010;2023-06-24T02:57:57;100285.69;;;22.55;77.34
61682;BME280;47577;43.610;25.010;2023-06-24T03:00:24;100281.50;;;22.51;78.05
61682;BME280;47577;43.610;25.010;2023-06-24T03:02:50;100290.38;;;22.53;77.71
61682;BME280;47577;43.610;25.010;2023-06-24T03:05:16;100294.00;;;22.42;78.39
61682;BME280;47577;43.610;25.010;2023-06-24T03:07:42;100294.41;;;22.38;78.82
61682;BME280;47577;43.610;25.010;2023-06-24T03:10:08;100301.63;;;22.16;79.98
61682;BME280;47577;43.610;25.010;2023-06-24T03:12:38;100293.56;;;22.26;79.10
61682;BME280;47577;43.610;25.010;2023-06-24T03:15:04;100299.66;;;22.07;80.39
61682;BME280;47577;43.610;25.010;2023-06-24T03:17:29;100299.59;;;21.86;81.08
61682;BME280;47577;43.610;25.010;2023-06-24T03:19:55;100295.03;;;21.86;81.84
61682;BME280;47577;43.610;25.010;2023-06-24T03:22:21;100311.47;;;22.06;81.77
61682;BME280;47577;43.610;25.010;2023-06-24T03:24:47;100310.31;;;22.20;80.26
61682;BME280;47577;43.610;25.010;2023-06-24T03:27:14;100311.03;;;22.33;79.58
61682;BME280;47577;43.610;25.010;2023-06-24T03:29:40;100299.22;;;22.34;80.41
61682;BME280;47577;43.610;25.010;2023-06-24T03:32:07;100296.16;;;22.27;79.88
61682;BME280;47577;43.610;25.010;2023-06-24T03:34:32;100297.38;;;22.35;79.66
61682;BME280;47577;43.610;25.010;2023-06-24T03:36:58;100294.06;;;22.31;81.12
61682;BME280;47577;43.610;25.010;2023-06-24T03:39:24;100298.97;;;22.37;79.79
61682;BME280;47577;43.610;25.010;2023-06-24T03:41:50;100299.28;;;22.44;79.40
61682;BME280;47577;43.610;25.010;2023-06-24T03:44:16;100294.00;;;22.42;79.69
61682;BME280;47577;43.610;25.010;2023-06-24T03:46:41;100304.47;;;22.47;79.93
61682;BME280;47577;43.610;25.010;2023-06-24T03:49:07;100309.44;;;22.63;80.16
61682;BME280;47577;43.610;25.010;2023-06-24T03:51:34;100310.84;;;22.67;79.87
61682;BME280;47577;43.610;25.010;2023-06-24T03:53:59;100312.78;;;22.76;79.01
61682;BME280;47577;43.610;25.010;2023-06-24T03:56:25;100317.75;;;22.92;78.42
61682;BME280;47577;43.610;25.010;2023-06-24T03:58:50;100313.88;;;22.95;79.57
61682;BME280;47577;43.610;25.010;2023-06-24T04:01:16;100305.44;;;23.09;78.06
61682;BME280;47577;43.610;25.010;2023-06-24T04:03:45;100304.34;;;23.22;79.27
61682;BME280;47577;43.610;25.010;2023-06-24T04:06:10;100303.38;;;23.32;78.38
61682;BME280;47577;43.610;25.010;2023-06-24T04:08:36;100313.47;;;23.51;76.64
61682;BME280;47577;43.610;25.010;2023-06-24T04:11:05;100310.09;;;23.69;76.29
61682;BME280;47577;43.610;25.010;2023-06-24T04:13:32;100309.13;;;23.80;77.54
61682;BME280;47577;43.610;25.010;2023-06-24T04:15:58;100321.72;;;23.90;77.04
61682;BME280;47577;43.610;25.010;2023-06-24T04:18:23;100322.63;;;24.01;78.53
61682;BME280;47577;43.610;25.010;2023-06-24T04:37:29;100291.81;;;25.45;72.52
61682;BME280;47577;43.610;25.010;2023-06-24T04:39:55;100298.09;;;25.46;71.10
61682;BME280;47577;43.610;25.010;2023-06-24T04:42:20;100300.97;;;25.44;71.79
61682;BME280;47577;43.610;25.010;2023-06-24T04:44:48;100304.38;;;25.46;72.61
61682;BME280;47577;43.610;25.010;2023-06-24T04:47:17;100291.22;;;25.51;70.47
61682;BME280;47577;43.610;25.010;2023-06-24T04:49:43;100292.31;;;25.59;71.26
61682;BME280;47577;43.610;25.010;2023-06-24T04:52:09;100298.44;;;25.61;70.73
61682;BME280;47577;43.610;25.010;2023-06-24T04:54:35;100298.00;;;25.65;69.63
61682;BME280;47577;43.610;25.010;2023-06-24T04:57:01;100294.97;;;25.68;69.27
61682;BME280;47577;43.610;25.010;2023-06-24T04:59:27;100302.06;;;25.79;69.22
61682;BME280;47577;43.610;25.010;2023-06-24T05:01:52;100293.91;;;25.79;67.93
61682;BME280;47577;43.610;25.010;2023-06-24T05:04:18;100295.88;;;25.87;69.28
61682;BME280;47577;43.610;25.010;2023-06-24T05:06:44;100298.81;;;25.94;70.20
61682;BME280;47577;43.610;25.010;2023-06-24T05:09:09;100301.81;;;26.00;68.29
61682;BME280;47577;43.610;25.010;2023-06-24T05:11:40;100312.34;;;26.13;69.96
61682;BME280;47577;43.610;25.010;2023-06-24T05:14:06;100312.03;;;26.16;68.49
61682;BME280;47577;43.610;25.010;2023-06-24T05:16:31;100323.16;;;26.23;68.54
61682;BME280;47577;43.610;25.010;2023-06-24T05:18:57;100308.59;;;26.32;67.90
61682;BME280;47577;43.610;25.010;2023-06-24T05:21:23;100315.81;;;26.41;67.46
61682;BME280;47577;43.610;25.010;2023-06-24T05:23:48;100310.06;;;26.44;67.94
61682;BME280;47577;43.610;25.010;2023-06-24T05:26:14;100318.84;;;26.56;69.28
61682;BME280;47577;43.610;25.010;2023-06-24T05:28:40;100322.53;;;26.65;68.94
61682;BME280;47577;43.610;25.010;2023-06-24T05:31:05;100331.16;;;26.78;67.79
61682;BME280;47577;43.610;25.010;2023-06-24T05:33:31;100326.69;;;26.77;68.00
61682;BME280;47577;43.610;25.010;2023-06-24T05:35:57;100326.06;;;26.84;68.28
61682;BME280;47577;43.610;25.010;2023-06-24T05:38:22;100325.66;;;26.96;66.95
61682;BME280;47577;43.610;25.010;2023-06-24T05:40:48;100320.41;;;27.03;66.48
61682;BME280;47577;43.610;25.010;2023-06-24T05:43:14;100317.56;;;27.13;66.73
61682;BME280;47577;43.610;25.010;2023-06-24T05:45:39;100331.66;;;27.26;64.78
61682;BME280;47577;43.610;25.010;2023-06-24T05:48:05;100327.94;;;27.35;65.10
61682;BME280;47577;43.610;25.010;2023-06-24T05:50:31;100334.69;;;27.49;65.15
61682;BME280;47577;43.610;25.010;2023-06-24T05:52:57;100334.75;;;27.66;66.58
61682;BME280;47577;43.610;25.010;2023-06-24T05:55:23;100346.22;;;27.78;64.32
61682;BME280;47577;43.610;25.010;2023-06-24T05:57:48;100345.75;;;27.90;63.52
61682;BME280;47577;43.610;25.010;2023-06-24T06:00:14;100351.97;;;28.01;63.69
61682;BME280;47577;43.610;25.010;2023-06-24T06:02:40;100354.41;;;28.12;64.15
61682;BME280;47577;43.610;25.010;2023-06-24T06:05:06;100350.47;;;28.23;62.83
61682;BME280;47577;43.610;25.010;2023-06-24T06:07:31;100354.09;;;28.23;64.41
61682;BME280;47577;43.610;25.010;2023-06-24T06:09:57;100347.41;;;28.26;62.76
61682;BME280;47577;43.610;25.010;2023-06-24T06:12:22;100361.09;;;28.42;61.50
61682;BME280;47577;43.610;25.010;2023-06-24T06:14:48;100356.81;;;28.32;60.57
61682;BME280;47577;43.610;25.010;2023-06-24T06:17:14;100361.25;;;28.41;61.23
61682;BME280;47577;43.610;25.010;2023-06-24T06:19:40;100361.97;;;28.51;60.30
61682;BME280;47577;43.610;25.010;2023-06-24T06:22:07;100370.03;;;28.61;59.85
61682;BME280;47577;43.610;25.010;2023-06-24T06:24:33;100361.50;;;28.72;59.17
61682;BME280;47577;43.610;25.010;2023-06-24T06:26:59;100363.00;;;28.75;59.31
61682;BME280;47577;43.610;25.010;2023-06-24T06:29:25;100361.16;;;28.84;59.78
61682;BME280;47577;43.610;25.010;2023-06-24T06:31:50;100359.75;;;28.96;59.20
61682;BME280;47577;43.610;25.010;2023-06-24T06:34:18;100366.75;;;29.07;58.46
61682;BME280;47577;43.610;25.010;2023-06-24T06:36:43;100371.91;;;29.02;58.51
61682;BME280;47577;43.610;25.010;2023-06-24T06:39:09;100371.88;;;29.10;58.04
61682;BME280;47577;43.610;25.010;2023-06-24T06:41:34;100369.31;;;29.25;57.87
61682;BME280;47577;43.610;25.010;2023-06-24T06:44:00;100364.50;;;29.35;57.15
61682;BME280;47577;43.610;25.010;2023-06-24T06:46:26;100365.06;;;29.22;56.41
61682;BME280;47577;43.610;25.010;2023-06-24T06:48:51;100371.38;;;29.14;55.39
61682;BME280;47577;43.610;25.010;2023-06-24T06:51:17;100377.53;;;29.25;57.14
61682;BME280;47577;43.610;25.010;2023-06-24T06:53:44;100369.97;;;29.43;56.39
61682;BME280;47577;43.610;25.010;2023-06-24T06:56:17;100369.91;;;29.60;55.07
61682;BME280;47577;43.610;25.010;2023-06-24T06:58:43;100369.19;;;29.74;55.97
61682;BME280;47577;43.610;25.010;2023-06-24T07:01:08;100353.88;;;29.88;54.12
61682;BME280;47577;43.610;25.010;2023-06-24T07:03:34;100347.50;;;29.96;53.69
61682;BME280;47577;43.610;25.010;2023-06-24T07:05:59;100341.53;;;29.92;55.89
61682;BME280;47577;43.610;25.010;2023-06-24T07:08:25;100338.06;;;29.98;54.71
61682;BME280;47577;43.610;25.010;2023-06-24T07:10:51;100343.38;;;30.00;54.02
61682;BME280;47577;43.610;25.010;2023-06-24T07:13:16;100341.09;;;30.12;54.39
61682;BME280;47577;43.610;25.010;2023-06-24T07:15:42;100339.69;;;30.16;56.20
61682;BME280;47577;43.610;25.010;2023-06-24T07:18:07;100334.25;;;30.07;54.34
61682;BME280;47577;43.610;25.010;2023-06-24T07:20:33;100340.22;;;30.11;56.58
61682;BME280;47577;43.610;25.010;2023-06-24T07:22:59;100347.53;;;30.19;56.50
61682;BME280;47577;43.610;25.010;2023-06-24T07:25:24;100326.78;;;30.24;51.91
61682;BME280;47577;43.610;25.010;2023-06-24T07:27:51;100345.16;;;30.47;53.89
61682;BME280;47577;43.610;25.010;2023-06-24T07:30:17;100343.41;;;30.69;54.32
61682;BME280;47577;43.610;25.010;2023-06-24T07:32:42;100344.03;;;30.79;53.29
61682;BME280;47577;43.610;25.010;2023-06-24T07:35:08;100342.56;;;30.69;51.62
61682;BME280;47577;43.610;25.010;2023-06-24T07:37:35;100336.94;;;30.85;53.40
61682;BME280;47577;43.610;25.010;2023-06-24T07:40:01;100333.78;;;31.11;52.19
61682;BME280;47577;43.610;25.010;2023-06-24T07:42:28;100333.88;;;31.18;54.56
61682;BME280;47577;43.610;25.010;2023-06-24T07:44:54;100342.88;;;30.89;52.19
61682;BME280;47577;43.610;25.010;2023-06-24T07:47:19;100348.00;;;31.15;50.98
61682;BME280;47577;43.610;25.010;2023-06-24T07:49:45;100357.38;;;31.35;50.46
61682;BME280;47577;43.610;25.010;2023-06-24T07:52:10;100346.28;;;30.99;49.85
61682;BME280;47577;43.610;25.010;2023-06-24T07:54:36;100347.66;;;30.95;48.62
61682;BME280;47577;43.610;25.010;2023-06-24T07:57:02;100340.78;;;31.14;48.70
61682;BME280;47577;43.610;25.010;2023-06-24T07:59:28;100337.31;;;31.35;46.97
61682;BME280;47577;43.610;25.010;2023-06-24T08:01:57;100339.69;;;31.53;51.36
61682;BME280;47577;43.610;25.010;2023-06-24T08:04:22;100340.34;;;31.55;50.04
61682;BME280;47577;43.610;25.010;2023-06-24T08:06:48;100332.66;;;31.80;49.16
61682;BME280;47577;43.610;25.010;2023-06-24T08:09:16;100348.25;;;31.95;46.84
61682;BME280;47577;43.610;25.010;2023-06-24T08:11:41;100341.50;;;31.97;46.42
61682;BME280;47577;43.610;25.010;2023-06-24T08:14:07;100339.81;;;32.11;46.46
61682;BME280;47577;43.610;25.010;2023-06-24T08:16:33;100343.53;;;32.25;46.82
61682;BME280;47577;43.610;25.010;2023-06-24T08:18:58;100337.06;;;32.33;46.51
61682;BME280;47577;43.610;25.010;2023-06-24T08:21:24;100341.06;;;32.30;45.22
61682;BME280;47577;43.610;25.010;2023-06-24T08:23:50;100342.84;;;32.59;43.27
61682;BME280;47577;43.610;25.010;2023-06-24T08:26:17;100342.16;;;32.57;45.74
61682;BME280;47577;43.610;25.010;2023-06-24T08:28:43;100347.78;;;32.64;45.56
61682;BME280;47577;43.610;25.010;2023-06-24T08:31:08;100345.09;;;32.71;43.43
61682;BME280;47577;43.610;25.010;2023-06-24T08:33:34;100345.97;;;32.78;42.01
61682;BME280;47577;43.610;25.010;2023-06-24T08:36:00;100341.50;;;32.77;40.63
61682;BME280;47577;43.610;25.010;2023-06-24T08:38:25;100342.38;;;32.77;43.31
61682;BME280;47577;43.610;25.010;2023-06-24T08:40:51;100341.44;;;32.92;42.20
61682;BME280;47577;43.610;25.010;2023-06-24T08:43:17;100342.97;;;33.01;43.34
61682;BME280;47577;43.610;25.010;2023-06-24T08:45:43;100349.00;;;33.11;42.00
61682;BME280;47577;43.610;25.010;2023-06-24T08:48:09;100342.53;;;33.19;42.24
61682;BME280;47577;43.610;25.010;2023-06-24T08:50:36;100338.53;;;33.28;40.92
61682;BME280;47577;43.610;25.010;2023-06-24T08:53:07;100343.47;;;33.40;42.56
61682;BME280;47577;43.610;25.010;2023-06-24T08:55:40;100329.22;;;33.29;43.12
61682;BME280;47577;43.610;25.010;2023-06-24T08:58:07;100333.09;;;33.42;41.17
61682;BME280;47577;43.610;25.010;2023-06-24T09:00:32;100333.25;;;33.33;43.07
61682;BME280;47577;43.610;25.010;2023-06-24T09:02:59;100334.22;;;33.54;39.12
61682;BME280;47577;43.610;25.010;2023-06-24T09:05:24;100333.63;;;33.65;39.84
61682;BME280;47577;43.610;25.010;2023-06-24T09:07:50;100326.88;;;33.68;40.43
61682;BME280;47577;43.610;25.010;2023-06-24T09:10:29;100329.47;;;33.69;39.66
61682;BME280;47577;43.610;25.010;2023-06-24T09:12:55;100333.09;;;33.77;43.38
61682;BME280;47577;43.610;25.010;2023-06-24T09:15:21;100318.91;;;33.80;40.60
61682;BME280;47577;43.610;25.010;2023-06-24T09:17:47;100331.16;;;33.77;40.10
61682;BME280;47577;43.610;25.010;2023-06-24T09:20:12;100326.78;;;33.89;39.33
61682;BME280;47577;43.610;25.010;2023-06-24T09:22:41;100320.66;;;34.07;38.50
61682;BME280;47577;43.610;25.010;2023-06-24T09:25:07;100321.78;;;34.20;36.96
61682;BME280;47577;43.610;25.010;2023-06-24T09:27:32;100322.44;;;34.22;39.62
61682;BME280;47577;43.610;25.010;2023-06-24T09:29:58;100317.59;;;34.37;38.11
61682;BME280;47577;43.610;25.010;2023-06-24T09:32:30;100313.34;;;34.55;34.35
61682;BME280;47577;43.610;25.010;2023-06-24T09:34:56;100311.84;;;34.39;34.70
61682;BME280;47577;43.610;25.010;2023-06-24T09:37:22;100315.03;;;34.63;36.42
61682;BME280;47577;43.610;25.010;2023-06-24T09:39:56;100316.34;;;34.67;33.85
61682;BME280;47577;43.610;25.010;2023-06-24T09:42:22;100312.50;;;34.68;34.71
61682;BME280;47577;43.610;25.010;2023-06-24T09:44:56;100313.16;;;34.70;33.16
61682;BME280;47577;43.610;25.010;2023-06-24T09:47:22;100314.63;;;34.66;30.13
61682;BME280;47577;43.610;25.010;2023-06-24T09:49:53;100306.78;;;34.76;32.93
61682;BME280;47577;43.610;25.010;2023-06-24T09:52:20;100301.25;;;34.76;34.67
61682;BME280;47577;43.610;25.010;2023-06-24T09:54:50;100300.81;;;34.92;32.75
61682;BME280;47577;43.610;25.010;2023-06-24T09:57:23;100301.84;;;35.11;32.53
61682;BME280;47577;43.610;25.010;2023-06-24T09:59:51;100309.28;;;35.18;31.87
61682;BME280;47577;43.610;25.010;2023-06-24T10:02:17;100301.22;;;35.09;32.37
61682;BME280;47577;43.610;25.010;2023-06-24T10:04:43;100301.66;;;35.06;30.80
61682;BME280;47577;43.610;25.010;2023-06-24T10:07:09;100304.59;;;35.18;30.95
61682;BME280;47577;43.610;25.010;2023-06-24T10:09:35;100298.63;;;35.41;31.45
61682;BME280;47577;43.610;25.010;2023-06-24T10:12:02;100300.09;;;35.44;31.25
61682;BME280;47577;43.610;25.010;2023-06-24T10:14:28;100299.88;;;35.45;32.61
61682;BME280;47577;43.610;25.010;2023-06-24T10:17:03;100301.31;;;35.61;29.94
61682;BME280;47577;43.610;25.010;2023-06-24T10:19:29;100298.69;;;35.73;30.15
61682;BME280;47577;43.610;25.010;2023-06-24T10:21:58;100292.09;;;35.81;30.53
61682;BME280;47577;43.610;25.010;2023-06-24T10:24:32;100292.44;;;35.91;30.33
61682;BME280;47577;43.610;25.010;2023-06-24T10:27:07;100291.06;;;35.75;29.45
61682;BME280;47577;43.610;25.010;2023-06-24T10:29:36;100292.91;;;35.88;30.65
61682;BME280;47577;43.610;25.010;2023-06-24T10:32:06;100286.41;;;36.08;29.81
61682;BME280;47577;43.610;25.010;2023-06-24T10:39:40;100290.22;;;35.75;28.10
61682;BME280;47577;43.610;25.010;2023-06-24T10:44:46;100274.59;;;35.94;28.44
61682;BME280;47577;43.610;25.010;2023-06-24T10:47:11;100274.84;;;35.85;30.69
61682;BME280;47577;43.610;25.010;2023-06-24T10:49:37;100274.34;;;35.95;28.96
61682;BME280;47577;43.610;25.010;2023-06-24T10:52:03;100267.06;;;36.08;30.57
61682;BME280;47577;43.610;25.010;2023-06-24T10:54:29;100275.78;;;36.04;29.63
61682;BME280;47577;43.610;25.010;2023-06-24T10:56:54;100267.28;;;35.99;30.12
61682;BME280;47577;43.610;25.010;2023-06-24T10:59:21;100259.19;;;36.04;30.07
61682;BME280;47577;43.610;25.010;2023-06-24T11:01:53;100253.56;;;36.18;28.82
61682;BME280;47577;43.610;25.010;2023-06-24T11:04:19;100257.00;;;36.13;30.93
61682;BME280;47577;43.610;25.010;2023-06-24T11:07:01;100252.94;;;36.16;30.03
61682;BME280;47577;43.610;25.010;2023-06-24T11:09:26;100250.75;;;35.93;31.06
61682;BME280;47577;43.610;25.010;2023-06-24T11:11:52;100249.81;;;36.05;26.86
61682;BME280;47577;43.610;25.010;2023-06-24T11:14:19;100234.81;;;36.20;26.96
61682;BME280;47577;43.610;25.010;2023-06-24T11:16:45;100241.88;;;36.16;30.18
61682;BME280;47577;43.610;25.010;2023-06-24T11:19:11;100233.78;;;36.46;26.31
61682;BME280;47577;43.610;25.010;2023-06-24T11:21:37;100234.97;;;36.57;25.43
61682;BME280;47577;43.610;25.010;2023-06-24T11:24:03;100227.94;;;36.54;25.09
61682;BME280;47577;43.610;25.010;2023-06-24T11:26:28;100234.81;;;36.70;26.79
61682;BME280;47577;43.610;25.010;2023-06-24T11:28:55;100228.19;;;36.78;25.36
61682;BME280;47577;43.610;25.010;2023-06-24T11:31:27;100221.56;;;36.97;28.27
61682;BME280;47577;43.610;25.010;2023-06-24T11:33:53;100211.94;;;37.19;28.26
61682;BME280;47577;43.610;25.010;2023-06-24T11:36:19;100212.44;;;37.34;28.20
61682;BME280;47577;43.610;25.010;2023-06-24T11:38:45;100202.66;;;37.31;28.07
61682;BME280;47577;43.610;25.010;2023-06-24T11:41:11;100197.00;;;37.38;26.11
61682;BME280;47577;43.610;25.010;2023-06-24T11:43:37;100190.47;;;37.14;26.04
61682;BME280;47577;43.610;25.010;2023-06-24T11:46:03;100192.06;;;37.40;25.42
61682;BME280;47577;43.610;25.010;2023-06-24T11:48:28;100185.28;;;37.55;27.70
61682;BME280;47577;43.610;25.010;2023-06-24T11:50:55;100176.84;;;37.61;26.47
61682;BME280;47577;43.610;25.010;2023-06-24T11:53:39;100179.63;;;37.12;27.91
61682;BME280;47577;43.610;25.010;2023-06-24T11:56:05;100164.25;;;36.80;29.39
61682;BME280;47577;43.610;25.010;2023-06-24T11:58:34;100163.78;;;37.20;28.83
61682;BME280;47577;43.610;25.010;2023-06-24T12:01:03;100172.56;;;36.98;27.02
61682;BME280;47577;43.610;25.010;2023-06-24T12:03:32;100168.94;;;37.16;30.28
61682;BME280;47577;43.610;25.010;2023-06-24T12:05:59;100161.69;;;37.33;28.95
61682;BME280;47577;43.610;25.010;2023-06-24T12:08:25;100162.38;;;37.29;28.34
61682;BME280;47577;43.610;25.010;2023-06-24T12:10:51;100157.09;;;37.27;29.20
61682;BME280;47577;43.610;25.010;2023-06-24T12:13:17;100160.72;;;37.28;27.68
61682;BME280;47577;43.610;25.010;2023-06-24T12:15:43;100172.69;;;36.66;27.92
61682;BME280;47577;43.610;25.010;2023-06-24T12:18:09;100165.19;;;36.92;28.19
61682;BME280;47577;43.610;25.010;2023-06-24T12:20:35;100157.59;;;36.44;29.35
61682;BME280;47577;43.610;25.010;2023-06-24T12:23:02;100159.84;;;36.28;28.30
61682;BME280;47577;43.610;25.010;2023-06-24T12:25:29;100156.53;;;36.63;28.55
61682;BME280;47577;43.610;25.010;2023-06-24T12:27:54;100161.50;;;36.80;29.36
61682;BME280;47577;43.610;25.010;2023-06-24T12:30:20;100158.19;;;36.89;28.86
61682;BME280;47577;43.610;25.010;2023-06-24T12:32:50;100166.72;;;36.26;29.81
61682;BME280;47577;43.610;25.010;2023-06-24T12:35:15;100162.38;;;36.55;29.29
61682;BME280;47577;43.610;25.010;2023-06-24T12:37:41;100164.72;;;36.95;28.61
61682;BME280;47577;43.610;25.010;2023-06-24T12:40:07;100165.00;;;37.24;27.40
61682;BME280;47577;43.610;25.010;2023-06-24T12:42:33;100155.78;;;37.60;27.08
61682;BME280;47577;43.610;25.010;2023-06-24T12:44:59;100159.25;;;37.56;27.45
61682;BME280;47577;43.610;25.010;2023-06-24T12:47:25;100170.47;;;37.61;28.91
61682;BME280;47577;43.610;25.010;2023-06-24T12:49:51;100168.63;;;37.55;27.10
61682;BME280;47577;43.610;25.010;2023-06-24T12:52:18;100160.28;;;37.43;24.59
61682;BME280;47577;43.610;25.010;2023-06-24T12:54:44;100154.19;;;37.53;25.70
61682;BME280;47577;43.610;25.010;2023-06-24T12:57:10;100155.66;;;37.67;27.45
61682;BME280;47577;43.610;25.010;2023-06-24T12:59:35;100157.84;;;37.65;25.63
61682;BME280;47577;43.610;25.010;2023-06-24T13:02:01;100159.59;;;37.78;25.30
61682;BME280;47577;43.610;25.010;2023-06-24T13:04:27;100153.31;;;37.82;25.47
61682;BME280;47577;43.610;25.010;2023-06-24T13:06:53;100150.03;;;37.74;24.77